sensor_id;sensor_type;location;lat;lon;timestamp;pressure;altitude;pressure_sealevel;temperature;humidity
36222;BME280;22266;52.340;4.962;2024-02-16T00:01:41;100866.53;;;12.19;92.14
36222;BME280;22266;52.340;4.962;2024-02-16T00:04:08;100871.94;;;12.12;91.61
36222;BME280;22266;52.340;4.962;2024-02-16T00:06:34;100869.03;;;12.13;91.10
36222;BME280;22266;52.340;4.962;2024-02-16T00:09:01;100869.03;;;12.13;91.58
36222;BME280;22266;52.340;4.962;2024-02-16T00:11:28;100870.47;;;12.09;91.73
36222;BME280;22266;52.340;4.962;2024-02-16T00:13:55;100864.03;;;12.10;91.45
36222;BME280;22266;52.340;4.962;2024-02-16T00:16:22;100864.47;;;12.14;91.84
36222;BME280;22266;52.340;4.962;2024-02-16T00:18:48;100857.63;;;12.11;91.72
36222;BME280;22266;52.340;4.962;2024-02-16T00:21:15;100867.38;;;12.12;91.87
36222;BME280;22266;52.340;4.962;2024-02-16T00:23:43;100867.16;;;12.07;91.70
36222;BME280;22266;52.340;4.962;2024-02-16T00:26:11;100860.09;;;12.06;91.74
36222;BME280;22266;52.340;4.962;2024-02-16T00:28:37;100861.34;;;12.04;92.00
36222;BME280;22266;52.340;4.962;2024-02-16T00:31:04;100857.81;;;12.03;91.56
36222;BME280;22266;52.340;4.962;2024-02-16T00:33:32;100847.63;;;12.05;91.72
36222;BME280;22266;52.340;4.962;2024-02-16T00:36:00;100853.88;;;11.99;92.25
36222;BME280;22266;52.340;4.962;2024-02-16T00:38:27;100859.03;;;12.01;91.67
36222;BME280;22266;52.340;4.962;2024-02-16T00:40:53;100863.78;;;11.99;91.94
36222;BME280;22266;52.340;4.962;2024-02-16T00:43:20;100853.00;;;11.92;91.99
36222;BME280;22266;52.340;4.962;2024-02-16T00:45:47;100847.41;;;11.94;91.96
36222;BME280;22266;52.340;4.962;2024-02-16T00:48:14;100854.25;;;11.96;91.53
36222;BME280;22266;52.340;4.962;2024-02-16T00:50:41;100855.88;;;11.91;91.99
36222;BME280;22266;52.340;4.962;2024-02-16T00:53:10;100849.91;;;11.95;91.08
36222;BME280;22266;52.340;4.962;2024-02-16T00:55:37;100848.66;;;11.91;91.65
36222;BME280;22266;52.340;4.962;2024-02-16T00:58:04;100850.91;;;11.94;91.46
36222;BME280;22266;52.340;4.962;2024-02-16T01:00:31;100842.63;;;11.89;91.64
36222;BME280;22266;52.340;4.962;2024-02-16T01:02:58;100843.47;;;11.96;91.84
36222;BME280;22266;52.340;4.962;2024-02-16T01:05:24;100843.66;;;11.95;91.71
36222;BME280;22266;52.340;4.962;2024-02-16T01:07:52;100839.69;;;11.91;91.69
36222;BME280;22266;52.340;4.962;2024-02-16T01:10:19;100846.97;;;11.90;91.16
36222;BME280;22266;52.340;4.962;2024-02-16T01:12:45;100841.38;;;11.92;91.42
36222;BME280;22266;52.340;4.962;2024-02-16T01:15:12;100839.50;;;11.92;91.45
36222;BME280;22266;52.340;4.962;2024-02-16T01:17:38;100830.16;;;11.88;91.38
36222;BME280;22266;52.340;4.962;2024-02-16T01:20:06;100833.28;;;11.92;91.38
36222;BME280;22266;52.340;4.962;2024-02-16T01:22:38;100833.06;;;11.93;91.24
36222;BME280;22266;52.340;4.962;2024-02-16T01:25:07;100831.44;;;11.92;91.26
36222;BME280;22266;52.340;4.962;2024-02-16T01:27:34;100828.50;;;11.94;91.08
36222;BME280;22266;52.340;4.962;2024-02-16T01:30:02;100834.31;;;11.91;90.95
36222;BME280;22266;52.340;4.962;2024-02-16T01:32:29;100830.16;;;11.88;91.14
36222;BME280;22266;52.340;4.962;2024-02-16T01:34:56;100821.03;;;11.89;91.10
36222;BME280;22266;52.340;4.962;2024-02-16T01:37:24;100834.72;;;11.87;90.66
36222;BME280;22266;52.340;4.962;2024-02-16T01:39:51;100826.22;;;11.84;90.91
36222;BME280;22266;52.340;4.962;2024-02-16T01:42:18;100834.13;;;11.92;90.77
36222;BME280;22266;52.340;4.962;2024-02-16T01:44:45;100830.16;;;11.88;91.09
36222;BME280;22266;52.340;4.962;2024-02-16T01:47:12;100828.09;;;11.90;90.80
36222;BME280;22266;52.340;4.962;2024-02-16T01:49:39;100819.38;;;11.88;90.68
36222;BME280;22266;52.340;4.962;2024-02-16T01:52:05;100811.06;;;11.90;90.38
36222;BME280;22266;52.340;4.962;2024-02-16T01:54:33;100811.09;;;11.96;90.73
36222;BME280;22266;52.340;4.962;2024-02-16T01:57:00;100812.97;;;11.96;90.21
36222;BME280;22266;52.340;4.962;2024-02-16T01:59:28;100816.69;;;11.95;90.51
36222;BME280;22266;52.340;4.962;2024-02-16T02:01:54;100799.47;;;11.96;90.67
36222;BME280;22266;52.340;4.962;2024-02-16T02:04:21;100780.38;;;11.97;90.67
36222;BME280;22266;52.340;4.962;2024-02-16T02:06:47;100785.78;;;11.97;90.70
36222;BME280;22266;52.340;4.962;2024-02-16T02:09:14;100780.16;;;11.92;90.87
36222;BME280;22266;52.340;4.962;2024-02-16T02:11:41;100800.31;;;11.96;90.48
36222;BME280;22266;52.340;4.962;2024-02-16T02:14:07;100806.09;;;11.93;90.38
36222;BME280;22266;52.340;4.962;2024-02-16T02:16:34;100803.38;;;11.86;90.47
36222;BME280;22266;52.340;4.962;2024-02-16T02:19:13;100812.25;;;11.80;90.98
36222;BME280;22266;52.340;4.962;2024-02-16T02:21:40;100810.38;;;11.74;90.24
36222;BME280;22266;52.340;4.962;2024-02-16T02:24:07;100806.44;;;11.77;90.32
36222;BME280;22266;52.340;4.962;2024-02-16T02:26:35;100800.84;;;11.78;90.45
36222;BME280;22266;52.340;4.962;2024-02-16T02:29:02;100781.97;;;11.78;90.38
36222;BME280;22266;52.340;4.962;2024-02-16T02:31:28;100792.97;;;11.77;90.48
36222;BME280;22266;52.340;4.962;2024-02-16T02:33:55;100791.53;;;11.81;90.18
36222;BME280;22266;52.340;4.962;2024-02-16T02:36:22;100795.25;;;11.80;90.33
36222;BME280;22266;52.340;4.962;2024-02-16T02:38:49;100778.44;;;11.78;90.29
36222;BME280;22266;52.340;4.962;2024-02-16T02:41:16;100792.97;;;11.77;90.20
36222;BME280;22266;52.340;4.962;2024-02-16T02:43:46;100788.59;;;11.76;90.01
36222;BME280;22266;52.340;4.962;2024-02-16T02:46:16;100788.19;;;11.72;90.26
36222;BME280;22266;52.340;4.962;2024-02-16T02:48:46;100790.66;;;11.67;90.55
36222;BME280;22266;52.340;4.962;2024-02-16T02:51:18;100791.88;;;11.64;90.29
36222;BME280;22266;52.340;4.962;2024-02-16T02:53:44;100790.66;;;11.67;90.36
36222;BME280;22266;52.340;4.962;2024-02-16T02:56:11;100785.44;;;11.66;90.30
36222;BME280;22266;52.340;4.962;2024-02-16T02:58:41;100785.88;;;11.69;90.50
36222;BME280;22266;52.340;4.962;2024-02-16T03:01:08;100777.78;;;11.69;89.81
36222;BME280;22266;52.340;4.962;2024-02-16T03:03:35;100775.50;;;11.66;90.25
36222;BME280;22266;52.340;4.962;2024-02-16T03:06:02;100781.09;;;11.64;90.29
36222;BME280;22266;52.340;4.962;2024-02-16T03:08:30;100783.59;;;11.66;90.05
36222;BME280;22266;52.340;4.962;2024-02-16T03:10:56;100774.88;;;11.71;90.24
36222;BME280;22266;52.340;4.962;2024-02-16T03:13:27;100776.75;;;11.70;90.31
36222;BME280;22266;52.340;4.962;2024-02-16T03:15:53;100768.66;;;11.70;89.97
36222;BME280;22266;52.340;4.962;2024-02-16T03:18:20;100774.88;;;11.71;89.82
36222;BME280;22266;52.340;4.962;2024-02-16T03:20:47;100770.97;;;11.73;90.05
36222;BME280;22266;52.340;4.962;2024-02-16T03:23:16;100771.34;;;11.70;90.04
36222;BME280;22266;52.340;4.962;2024-02-16T03:25:42;100773.44;;;11.68;89.89
36222;BME280;22266;52.340;4.962;2024-02-16T03:28:12;100762.00;;;11.66;89.96
36222;BME280;22266;52.340;4.962;2024-02-16T03:30:40;100775.72;;;11.64;89.51
36222;BME280;22266;52.340;4.962;2024-02-16T03:33:07;100766.97;;;11.62;89.87
36222;BME280;22266;52.340;4.962;2024-02-16T03:35:35;100758.28;;;11.60;89.73
36222;BME280;22266;52.340;4.962;2024-02-16T03:38:03;100757.63;;;11.58;89.76
36222;BME280;22266;52.340;4.962;2024-02-16T03:40:30;100765.09;;;11.56;89.46
36222;BME280;22266;52.340;4.962;2024-02-16T03:42:56;100772.59;;;11.61;89.66
36222;BME280;22266;52.340;4.962;2024-02-16T03:45:23;100763.06;;;11.65;89.72
36222;BME280;22266;52.340;4.962;2024-02-16T03:47:50;100755.56;;;11.60;89.67
36222;BME280;22266;52.340;4.962;2024-02-16T03:50:20;100763.88;;;11.59;89.53
36222;BME280;22266;52.340;4.962;2024-02-16T03:52:47;100766.56;;;11.59;89.51
36222;BME280;22266;52.340;4.962;2024-02-16T03:55:14;100759.09;;;11.61;89.38
36222;BME280;22266;52.340;4.962;2024-02-16T03:57:41;100761.59;;;11.62;89.30
36222;BME280;22266;52.340;4.962;2024-02-16T04:00:10;100754.13;;;11.64;89.51
36222;BME280;22266;52.340;4.962;2024-02-16T04:02:40;100764.72;;;11.59;89.44
36222;BME280;22266;52.340;4.962;2024-02-16T04:05:07;100768.63;;;11.57;89.84
36222;BME280;22266;52.340;4.962;2024-02-16T04:07:35;100772.38;;;11.62;89.72
36222;BME280;22266;52.340;4.962;2024-02-16T04:10:03;100772.97;;;11.58;89.75
36222;BME280;22266;52.340;4.962;2024-02-16T04:12:29;100765.72;;;11.58;89.64
36222;BME280;22266;52.340;4.962;2024-02-16T04:14:56;100754.75;;;11.60;89.33
36222;BME280;22266;52.340;4.962;2024-02-16T04:17:23;100756.63;;;11.59;89.57
36222;BME280;22266;52.340;4.962;2024-02-16T04:19:50;100750.59;;;11.57;89.37
36222;BME280;22266;52.340;4.962;2024-02-16T04:22:17;100751.41;;;11.58;89.46
36222;BME280;22266;52.340;4.962;2024-02-16T04:24:43;100749.34;;;11.60;89.19
36222;BME280;22266;52.340;4.962;2024-02-16T04:27:10;100738.75;;;11.58;89.35
36222;BME280;22266;52.340;4.962;2024-02-16T04:29:36;100750.41;;;11.59;89.18
36222;BME280;22266;52.340;4.962;2024-02-16T04:32:03;100740.00;;;11.62;89.26
36222;BME280;22266;52.340;4.962;2024-02-16T04:34:30;100743.56;;;11.63;89.19
36222;BME280;22266;52.340;4.962;2024-02-16T04:36:57;100758.50;;;11.66;89.47
36222;BME280;22266;52.340;4.962;2024-02-16T04:39:23;100757.88;;;11.63;89.03
36222;BME280;22266;52.340;4.962;2024-02-16T04:41:50;100754.75;;;11.60;89.19
36222;BME280;22266;52.340;4.962;2024-02-16T04:44:18;100767.41;;;11.59;89.00
36222;BME280;22266;52.340;4.962;2024-02-16T04:46:45;100755.16;;;11.57;89.08
36222;BME280;22266;52.340;4.962;2024-02-16T04:49:12;100767.59;;;11.58;88.84
36222;BME280;22266;52.340;4.962;2024-02-16T04:51:39;100768.19;;;11.53;89.16
36222;BME280;22266;52.340;4.962;2024-02-16T04:54:07;100759.06;;;11.54;88.81
36222;BME280;22266;52.340;4.962;2024-02-16T04:56:34;100751.41;;;11.51;89.08
36222;BME280;22266;52.340;4.962;2024-02-16T04:59:00;100755.72;;;11.46;89.02
36222;BME280;22266;52.340;4.962;2024-02-16T05:01:27;100752.41;;;11.50;88.87
36222;BME280;22266;52.340;4.962;2024-02-16T05:03:56;100764.06;;;11.51;88.86
36222;BME280;22266;52.340;4.962;2024-02-16T05:06:24;100765.50;;;11.47;88.88
36222;BME280;22266;52.340;4.962;2024-02-16T05:08:51;100760.28;;;11.45;88.87
36222;BME280;22266;52.340;4.962;2024-02-16T05:11:17;100753.66;;;11.41;88.93
36222;BME280;22266;52.340;4.962;2024-02-16T05:13:44;100750.34;;;11.39;89.02
36222;BME280;22266;52.340;4.962;2024-02-16T05:16:11;100756.94;;;11.36;89.14
36222;BME280;22266;52.340;4.962;2024-02-16T05:18:38;100754.03;;;11.31;88.80
36222;BME280;22266;52.340;4.962;2024-02-16T05:21:05;100742.59;;;11.29;89.31
36222;BME280;22266;52.340;4.962;2024-02-16T05:23:32;100750.91;;;11.28;89.36
36222;BME280;22266;52.340;4.962;2024-02-16T05:25:58;100746.13;;;11.23;89.26
36222;BME280;22266;52.340;4.962;2024-02-16T05:28:25;100743.00;;;11.20;89.42
36222;BME280;22266;52.340;4.962;2024-02-16T05:30:52;100744.47;;;11.22;89.46
36222;BME280;22266;52.340;4.962;2024-02-16T05:33:18;100743.44;;;11.23;89.41
36222;BME280;22266;52.340;4.962;2024-02-16T05:35:45;100751.72;;;11.28;89.53
36222;BME280;22266;52.340;4.962;2024-02-16T05:38:17;100754.81;;;11.25;89.46
36222;BME280;22266;52.340;4.962;2024-02-16T05:40:58;100749.66;;;11.24;89.61
36222;BME280;22266;52.340;4.962;2024-02-16T05:43:25;100742.78;;;11.21;89.67
36222;BME280;22266;52.340;4.962;2024-02-16T05:45:51;100747.34;;;11.21;89.77
36222;BME280;22266;52.340;4.962;2024-02-16T05:48:18;100752.56;;;11.22;89.88
36222;BME280;22266;52.340;4.962;2024-02-16T05:50:46;100745.91;;;11.18;90.32
36222;BME280;22266;52.340;4.962;2024-02-16T05:53:13;100752.50;;;11.16;90.28
36222;BME280;22266;52.340;4.962;2024-02-16T05:55:39;100770.34;;;11.17;90.10
36222;BME280;22266;52.340;4.962;2024-02-16T05:58:06;100770.34;;;11.17;90.39
36222;BME280;22266;52.340;4.962;2024-02-16T06:00:34;100772.19;;;11.16;90.20
36222;BME280;22266;52.340;4.962;2024-02-16T06:03:01;100778.81;;;11.13;90.12
36222;BME280;22266;52.340;4.962;2024-02-16T06:05:29;100781.72;;;11.12;90.51
36222;BME280;22266;52.340;4.962;2024-02-16T06:07:55;100772.56;;;11.06;90.36
36222;BME280;22266;52.340;4.962;2024-02-16T06:10:23;100776.31;;;11.12;90.49
36222;BME280;22266;52.340;4.962;2024-02-16T06:12:50;100783.38;;;11.13;90.39
36222;BME280;22266;52.340;4.962;2024-02-16T06:15:17;100786.31;;;11.18;90.27
36222;BME280;22266;52.340;4.962;2024-02-16T06:17:43;100776.53;;;11.17;90.34
36222;BME280;22266;52.340;4.962;2024-02-16T06:20:11;100778.22;;;11.18;90.13
36222;BME280;22266;52.340;4.962;2024-02-16T06:22:37;100779.69;;;11.21;90.37
36222;BME280;22266;52.340;4.962;2024-02-16T06:25:05;100780.66;;;11.13;90.36
36222;BME280;22266;52.340;4.962;2024-02-16T06:27:32;100784.63;;;11.10;90.74
36222;BME280;22266;52.340;4.962;2024-02-16T06:29:59;100783.19;;;11.14;90.57
36222;BME280;22266;52.340;4.962;2024-02-16T06:32:26;100787.75;;;11.14;90.78
36222;BME280;22266;52.340;4.962;2024-02-16T06:34:54;100791.25;;;11.14;90.46
36222;BME280;22266;52.340;4.962;2024-02-16T06:37:20;100788.78;;;11.20;90.42
36222;BME280;22266;52.340;4.962;2024-02-16T06:39:47;100798.09;;;11.17;90.62
36222;BME280;22266;52.340;4.962;2024-02-16T06:42:14;100798.53;;;11.14;90.64
36222;BME280;22266;52.340;4.962;2024-02-16T06:44:40;100806.19;;;11.17;90.70
36222;BME280;22266;52.340;4.962;2024-02-16T06:47:07;100808.69;;;11.19;90.93
36222;BME280;22266;52.340;4.962;2024-02-16T06:49:34;100796.50;;;11.23;91.16
36222;BME280;22266;52.340;4.962;2024-02-16T06:52:00;100797.50;;;11.22;91.08
36222;BME280;22266;52.340;4.962;2024-02-16T06:54:27;100802.88;;;11.22;91.04
36222;BME280;22266;52.340;4.962;2024-02-16T06:56:53;100805.19;;;11.18;90.90
36222;BME280;22266;52.340;4.962;2024-02-16T06:59:20;100808.28;;;11.22;92.27
36222;BME280;22266;52.340;4.962;2024-02-16T07:01:47;100806.38;;;11.57;95.36
36222;BME280;22266;52.340;4.962;2024-02-16T07:04:14;100814.31;;;11.78;94.81
36222;BME280;22266;52.340;4.962;2024-02-16T07:06:41;100820.84;;;11.97;93.99
36222;BME280;22266;52.340;4.962;2024-02-16T07:09:08;100813.19;;;12.14;93.22
36222;BME280;22266;52.340;4.962;2024-02-16T07:11:35;100813.22;;;12.27;92.74
36222;BME280;22266;52.340;4.962;2024-02-16T07:14:02;100818.63;;;12.34;91.56
36222;BME280;22266;52.340;4.962;2024-02-16T07:16:29;100822.78;;;12.36;90.85
36222;BME280;22266;52.340;4.962;2024-02-16T07:18:56;100820.50;;;12.47;91.21
36222;BME280;22266;52.340;4.962;2024-02-16T07:21:23;100824.84;;;12.54;90.41
36222;BME280;22266;52.340;4.962;2024-02-16T07:23:49;100823.63;;;12.57;89.38
36222;BME280;22266;52.340;4.962;2024-02-16T07:26:17;100822.34;;;12.59;89.43
36222;BME280;22266;52.340;4.962;2024-02-16T07:28:44;100830.06;;;12.62;89.41
36222;BME280;22266;52.340;4.962;2024-02-16T07:31:11;100831.50;;;12.65;89.33
36222;BME280;22266;52.340;4.962;2024-02-16T07:33:38;100830.66;;;12.71;89.01
36222;BME280;22266;52.340;4.962;2024-02-16T07:36:05;100836.50;;;12.75;88.70
36222;BME280;22266;52.340;4.962;2024-02-16T07:38:31;100841.28;;;12.73;88.20
36222;BME280;22266;52.340;4.962;2024-02-16T07:40:58;100853.97;;;12.72;88.39
36222;BME280;22266;52.340;4.962;2024-02-16T07:43:27;100852.28;;;12.78;87.79
36222;BME280;22266;52.340;4.962;2024-02-16T07:45:53;100854.75;;;12.79;88.13
36222;BME280;22266;52.340;4.962;2024-02-16T07:48:21;100864.53;;;12.94;89.66
36222;BME280;22266;52.340;4.962;2024-02-16T07:50:48;100861.63;;;12.95;88.95
36222;BME280;22266;52.340;4.962;2024-02-16T07:53:16;100876.59;;;12.91;87.55
36222;BME280;22266;52.340;4.962;2024-02-16T07:55:43;100875.56;;;12.79;87.59
36222;BME280;22266;52.340;4.962;2024-02-16T07:58:10;100880.53;;;12.75;87.83
36222;BME280;22266;52.340;4.962;2024-02-16T08:00:37;100887.59;;;12.70;87.85
36222;BME280;22266;52.340;4.962;2024-02-16T08:03:04;100889.06;;;12.72;88.31
36222;BME280;22266;52.340;4.962;2024-02-16T08:05:30;100885.94;;;12.75;88.13
36222;BME280;22266;52.340;4.962;2024-02-16T08:07:57;100891.34;;;12.75;88.49
36222;BME280;22266;52.340;4.962;2024-02-16T08:10:24;100888.22;;;12.72;88.20
36222;BME280;22266;52.340;4.962;2024-02-16T08:12:52;100889.69;;;12.74;88.88
36222;BME280;22266;52.340;4.962;2024-02-16T08:15:19;100891.75;;;12.66;88.35
36222;BME280;22266;52.340;4.962;2024-02-16T08:17:50;100896.13;;;12.67;89.05
36222;BME280;22266;52.340;4.962;2024-02-16T08:20:18;100898.63;;;12.75;89.47
36222;BME280;22266;52.340;4.962;2024-02-16T08:22:45;100902.34;;;12.74;89.52
36222;BME280;22266;52.340;4.962;2024-02-16T08:25:12;100902.97;;;12.76;89.06
36222;BME280;22266;52.340;4.962;2024-02-16T08:27:39;100903.81;;;12.83;89.57
36222;BME280;22266;52.340;4.962;2024-02-16T08:30:06;100911.50;;;12.86;89.08
36222;BME280;22266;52.340;4.962;2024-02-16T08:32:36;100916.91;;;12.86;88.80
36222;BME280;22266;52.340;4.962;2024-02-16T08:35:02;100913.19;;;12.80;89.10
36222;BME280;22266;52.340;4.962;2024-02-16T08:37:30;100916.72;;;12.81;89.10
36222;BME280;22266;52.340;4.962;2024-02-16T08:39:56;100923.34;;;12.85;89.21
36222;BME280;22266;52.340;4.962;2024-02-16T08:42:23;100932.28;;;12.92;89.24
36222;BME280;22266;52.340;4.962;2024-02-16T08:44:50;100932.50;;;12.91;89.42
36222;BME280;22266;52.340;4.962;2024-02-16T08:47:17;100932.50;;;12.91;89.51
36222;BME280;22266;52.340;4.962;2024-02-16T08:49:44;100946.03;;;12.97;89.47
36222;BME280;22266;52.340;4.962;2024-02-16T08:52:11;100942.06;;;12.93;88.61
36222;BME280;22266;52.340;4.962;2024-02-16T08:54:38;100939.56;;;12.92;89.32
36222;BME280;22266;52.340;4.962;2024-02-16T08:57:04;100948.91;;;12.82;89.31
36222;BME280;22266;52.340;4.962;2024-02-16T08:59:32;100955.34;;;12.81;90.21
36222;BME280;22266;52.340;4.962;2024-02-16T09:02:00;100959.94;;;12.81;90.84
36222;BME280;22266;52.340;4.962;2024-02-16T09:04:27;100970.31;;;12.84;91.21
36222;BME280;22266;52.340;4.962;2024-02-16T09:06:54;100967.19;;;12.87;90.76
36222;BME280;22266;52.340;4.962;2024-02-16T09:09:20;100970.94;;;12.86;90.99
36222;BME280;22266;52.340;4.962;2024-02-16T09:11:47;100969.06;;;12.86;91.28
36222;BME280;22266;52.340;4.962;2024-02-16T09:14:14;100980.28;;;12.83;91.22
36222;BME280;22266;52.340;4.962;2024-02-16T09:16:40;100980.91;;;12.92;92.13
36222;BME280;22266;52.340;4.962;2024-02-16T09:19:07;100985.72;;;12.97;92.46
36222;BME280;22266;52.340;4.962;2024-02-16T09:21:34;100997.75;;;12.94;92.09
36222;BME280;22266;52.340;4.962;2024-02-16T09:24:01;100995.66;;;12.96;92.77
36222;BME280;22266;52.340;4.962;2024-02-16T09:26:28;101012.31;;;13.00;92.70
36222;BME280;22266;52.340;4.962;2024-02-16T09:29:00;101014.19;;;12.93;91.65
36222;BME280;22266;52.340;4.962;2024-02-16T09:31:27;101012.72;;;12.90;92.60
36222;BME280;22266;52.340;4.962;2024-02-16T09:33:53;101021.63;;;12.84;92.45
36222;BME280;22266;52.340;4.962;2024-02-16T09:36:21;101024.34;;;12.77;93.07
36222;BME280;22266;52.340;4.962;2024-02-16T09:38:48;101030.34;;;12.73;93.79
36222;BME280;22266;52.340;4.962;2024-02-16T09:41:15;101033.06;;;12.73;93.62
36222;BME280;22266;52.340;4.962;2024-02-16T09:43:42;101030.75;;;12.70;93.82
36222;BME280;22266;52.340;4.962;2024-02-16T09:46:09;101038.44;;;12.66;93.68
36222;BME280;22266;52.340;4.962;2024-02-16T09:48:39;101040.44;;;12.51;93.51
36222;BME280;22266;52.340;4.962;2024-02-16T09:51:07;101050.81;;;12.41;94.28
36222;BME280;22266;52.340;4.962;2024-02-16T09:53:34;101053.56;;;12.54;96.48
36222;BME280;22266;52.340;4.962;2024-02-16T09:56:01;101055.25;;;12.61;96.07
36222;BME280;22266;52.340;4.962;2024-02-16T09:58:28;101071.88;;;12.65;95.35
36222;BME280;22266;52.340;4.962;2024-02-16T10:00:55;101074.94;;;12.49;94.63
36222;BME280;22266;52.340;4.962;2024-02-16T10:03:30;101076.94;;;12.33;95.08
36222;BME280;22266;52.340;4.962;2024-02-16T10:06:06;101088.94;;;12.24;95.78
36222;BME280;22266;52.340;4.962;2024-02-16T10:08:34;101090.53;;;12.12;96.64
36222;BME280;22266;52.340;4.962;2024-02-16T10:11:02;101101.72;;;12.09;97.55
36222;BME280;22266;52.340;4.962;2024-02-16T10:13:33;101108.53;;;12.05;97.93
36222;BME280;22266;52.340;4.962;2024-02-16T10:16:10;101112.66;;;12.01;98.15
36222;BME280;22266;52.340;4.962;2024-02-16T10:18:38;101121.09;;;11.91;98.88
36222;BME280;22266;52.340;4.962;2024-02-16T10:21:05;101132.03;;;11.83;99.47
36222;BME280;22266;52.340;4.962;2024-02-16T10:23:32;101122.81;;;11.77;100.00
36222;BME280;22266;52.340;4.962;2024-02-16T10:26:01;101136.25;;;11.92;100.00
36222;BME280;22266;52.340;4.962;2024-02-16T10:28:28;101137.66;;;11.88;100.00
36222;BME280;22266;52.340;4.962;2024-02-16T10:30:58;101147.75;;;11.79;100.00
36222;BME280;22266;52.340;4.962;2024-02-16T10:33:28;101154.56;;;11.75;100.00
36222;BME280;22266;52.340;4.962;2024-02-16T10:35:56;101162.38;;;11.70;100.00
36222;BME280;22266;52.340;4.962;2024-02-16T10:38:27;101169.00;;;11.68;100.00
36222;BME280;22266;52.340;4.962;2024-02-16T10:40:56;101166.94;;;11.70;100.00
36222;BME280;22266;52.340;4.962;2024-02-16T10:43:24;101165.06;;;11.70;100.00
36222;BME280;22266;52.340;4.962;2024-02-16T10:45:53;101165.06;;;11.70;100.00
36222;BME280;22266;52.340;4.962;2024-02-16T10:48:21;101179.00;;;11.74;100.00
36222;BME280;22266;52.340;4.962;2024-02-16T10:50:48;101175.31;;;12.03;100.00
36222;BME280;22266;52.340;4.962;2024-02-16T10:53:28;101175.31;;;12.24;100.00
36222;BME280;22266;52.340;4.962;2024-02-16T10:55:57;101183.28;;;12.39;100.00
36222;BME280;22266;52.340;4.962;2024-02-16T10:58:27;101191.97;;;12.34;100.00
36222;BME280;22266;52.340;4.962;2024-02-16T11:00:55;101192.72;;;12.22;100.00
36222;BME280;22266;52.340;4.962;2024-02-16T11:03:24;101196.16;;;12.37;100.00
36222;BME280;22266;52.340;4.962;2024-02-16T11:05:52;101212.13;;;12.38;100.00
36222;BME280;22266;52.340;4.962;2024-02-16T11:08:23;101211.50;;;12.36;100.00
36222;BME280;22266;52.340;4.962;2024-02-16T11:11:02;101208.69;;;12.23;100.00
36222;BME280;22266;52.340;4.962;2024-02-16T11:13:33;101216.78;;;12.23;100.00
36222;BME280;22266;52.340;4.962;2024-02-16T11:16:02;101217.06;;;12.07;100.00
36222;BME280;22266;52.340;4.962;2024-02-16T11:18:31;101211.81;;;11.99;100.00
36222;BME280;22266;52.340;4.962;2024-02-16T11:21:02;101223.72;;;12.04;100.00
36222;BME280;22266;52.340;4.962;2024-02-16T11:23:34;101221.19;;;12.03;100.00
36222;BME280;22266;52.340;4.962;2024-02-16T11:26:02;101228.59;;;11.94;100.00
36222;BME280;22266;52.340;4.962;2024-02-16T11:28:33;101238.91;;;11.84;100.00
36222;BME280;22266;52.340;4.962;2024-02-16T11:31:01;101246.88;;;11.77;100.00
36222;BME280;22266;52.340;4.962;2024-02-16T11:33:29;101252.47;;;11.76;100.00
36222;BME280;22266;52.340;4.962;2024-02-16T11:36:02;101254.06;;;11.70;100.00
36222;BME280;22266;52.340;4.962;2024-02-16T11:38:31;101273.50;;;11.66;100.00
36222;BME280;22266;52.340;4.962;2024-02-16T11:41:04;101276.78;;;11.61;100.00
36222;BME280;22266;52.340;4.962;2024-02-16T11:43:32;101277.28;;;11.50;100.00
36222;BME280;22266;52.340;4.962;2024-02-16T11:46:19;101281.00;;;11.49;100.00
36222;BME280;22266;52.340;4.962;2024-02-16T11:48:46;101291.53;;;11.44;100.00
36222;BME280;22266;52.340;4.962;2024-02-16T11:51:15;101297.84;;;11.36;100.00
36222;BME280;22266;52.340;4.962;2024-02-16T11:53:44;101305.84;;;11.29;100.00
36222;BME280;22266;52.340;4.962;2024-02-16T11:56:21;101302.50;;;11.27;100.00
36222;BME280;22266;52.340;4.962;2024-02-16T11:58:48;101300.84;;;11.26;100.00
36222;BME280;22266;52.340;4.962;2024-02-16T12:01:14;101305.22;;;11.27;100.00
36222;BME280;22266;52.340;4.962;2024-02-16T12:03:42;101309.00;;;11.33;100.00
36222;BME280;22266;52.340;4.962;2024-02-16T12:06:09;101311.31;;;11.36;100.00
36222;BME280;22266;52.340;4.962;2024-02-16T12:08:35;101309.56;;;11.43;100.00
36222;BME280;22266;52.340;4.962;2024-02-16T12:11:02;101315.84;;;11.50;100.00
36222;BME280;22266;52.340;4.962;2024-02-16T12:13:29;101315.94;;;11.57;100.00
36222;BME280;22266;52.340;4.962;2024-02-16T12:15:55;101328.00;;;11.61;100.00
36222;BME280;22266;52.340;4.962;2024-02-16T12:18:26;101331.38;;;11.63;100.00
36222;BME280;22266;52.340;4.962;2024-02-16T12:21:03;101339.91;;;11.67;100.00
36222;BME280;22266;52.340;4.962;2024-02-16T12:23:33;101337.84;;;11.69;100.00
36222;BME280;22266;52.340;4.962;2024-02-16T12:26:00;101337.78;;;11.62;100.00
36222;BME280;22266;52.340;4.962;2024-02-16T12:28:30;101348.09;;;11.58;100.00
36222;BME280;22266;52.340;4.962;2024-02-16T12:31:00;101354.34;;;11.59;100.00
36222;BME280;22266;52.340;4.962;2024-02-16T12:33:29;101357.47;;;11.62;100.00
36222;BME280;22266;52.340;4.962;2024-02-16T12:35:57;101361.66;;;11.65;100.00
36222;BME280;22266;52.340;4.962;2024-02-16T12:38:23;101371.63;;;11.64;100.00
36222;BME280;22266;52.340;4.962;2024-02-16T12:40:50;101377.22;;;11.63;100.00
36222;BME280;22266;52.340;4.962;2024-02-16T12:43:17;101375.16;;;11.65;100.00
36222;BME280;22266;52.340;4.962;2024-02-16T12:45:45;101381.13;;;11.60;100.00
36222;BME280;22266;52.340;4.962;2024-02-16T12:48:12;101387.44;;;11.53;100.00
36222;BME280;22266;52.340;4.962;2024-02-16T12:50:41;101382.34;;;11.43;100.00